createdAt,value
2019-03-18T00:02:12.063Z,81.49
2019-03-18T00:04:42.936Z,81.36
2019-03-18T00:07:13.693Z,81.31
2019-03-18T00:09:44.546Z,81.50
2019-03-18T00:12:15.282Z,81.11
2019-03-18T00:14:45.935Z,81.12
2019-03-18T00:17:16.808Z,81.17
2019-03-18T00:19:47.564Z,81.23
2019-03-18T00:22:18.316Z,81.36
2019-03-18T00:24:48.969Z,81.37
2019-03-18T00:27:19.825Z,81.50
2019-03-18T00:29:50.462Z,81.57
2019-03-18T00:32:21.211Z,81.52
2019-03-18T00:34:51.880Z,81.47
2019-03-18T00:37:22.751Z,81.48
2019-03-18T00:39:53.494Z,81.45
2019-03-18T00:42:24.349Z,81.38
2019-03-18T00:44:55.080Z,81.36
2019-03-18T00:47:26.985Z,81.32
2019-03-18T00:49:57.716Z,81.22
2019-03-18T00:52:28.586Z,81.21
2019-03-18T00:54:59.243Z,81.24
2019-03-18T00:57:30.097Z,81.24
2019-03-18T01:00:00.777Z,81.48
2019-03-18T01:02:31.607Z,81.46
2019-03-18T01:05:02.257Z,81.54
2019-03-18T01:07:33.098Z,81.47
2019-03-18T01:10:04.667Z,81.37
2019-03-18T01:12:35.234Z,81.45
2019-03-18T01:15:08.037Z,81.49
2019-03-18T01:17:38.463Z,81.32
2019-03-18T01:20:13.225Z,81.46
2019-03-18T01:22:43.654Z,81.60
2019-03-18T01:25:14.201Z,81.45
2019-03-18T01:27:45.079Z,81.67
2019-03-18T01:30:15.707Z,81.68
2019-03-18T01:32:46.480Z,81.57
2019-03-18T01:35:17.130Z,81.49
2019-03-18T01:37:47.895Z,81.47
2019-03-18T01:40:18.742Z,81.49
2019-03-18T01:42:49.476Z,81.47
2019-03-18T01:45:20.027Z,81.52
2019-03-18T01:47:51.924Z,81.64
2019-03-18T01:50:22.660Z,81.50
2019-03-18T01:52:53.531Z,81.53
2019-03-18T01:55:24.288Z,81.45
2019-03-18T01:57:54.940Z,81.54
2019-03-18T02:00:25.793Z,81.62
2019-03-18T02:02:56.548Z,81.68
2019-03-18T02:05:27.300Z,81.60
2019-03-18T02:07:58.139Z,81.72
2019-03-18T02:10:28.895Z,81.96
2019-03-18T02:12:59.667Z,82.06
2019-03-18T02:15:30.303Z,82.06
2019-03-18T02:18:01.157Z,82.20
2019-03-18T02:20:31.932Z,82.29
2019-03-18T02:23:02.683Z,82.20
2019-03-18T02:25:35.978Z,82.18
2019-03-18T02:28:06.644Z,82.04
2019-03-18T02:30:37.383Z,82.00
2019-03-18T02:33:08.233Z,82.02
2019-03-18T02:35:38.888Z,82.13
2019-03-18T02:38:08.963Z,82.33
2019-03-18T02:40:39.494Z,82.37
2019-03-18T02:43:10.137Z,82.41
2019-03-18T02:45:40.999Z,82.34
2019-03-18T02:48:12.756Z,82.21
2019-03-18T02:50:43.639Z,82.25
2019-03-18T02:53:14.374Z,82.28
2019-03-18T02:55:45.084Z,82.33
2019-03-18T02:58:16.022Z,82.23
2019-03-18T03:00:46.729Z,82.26
2019-03-18T03:03:17.503Z,82.28
2019-03-18T03:05:48.400Z,82.38
2019-03-18T03:08:19.221Z,82.28
2019-03-18T03:10:49.954Z,82.24
2019-03-18T03:13:20.622Z,82.35
2019-03-18T03:15:51.389Z,82.54
2019-03-18T03:18:22.229Z,82.48
2019-03-18T03:20:52.990Z,82.22
2019-03-18T03:23:23.636Z,82.00
2019-03-18T03:25:54.838Z,82.03
2019-03-18T03:28:25.262Z,82.08
2019-03-18T03:30:56.009Z,82.18
2019-03-18T03:33:26.653Z,82.10
2019-03-18T03:35:59.051Z,82.12
2019-03-18T03:38:29.675Z,82.27
2019-03-18T03:41:00.450Z,82.21
2019-03-18T03:43:31.304Z,82.08
2019-03-18T03:46:02.162Z,82.12
2019-03-18T03:48:33.003Z,81.93
2019-03-18T03:51:02.868Z,82.00
2019-03-18T03:53:33.499Z,82.13
2019-03-18T03:56:04.154Z,82.23
2019-03-18T03:58:35.008Z,82.20
2019-03-18T04:01:05.847Z,82.12
2019-03-18T04:03:38.632Z,81.88
2019-03-18T04:06:08.703Z,81.86
2019-03-18T04:08:39.446Z,81.74
2019-03-18T04:11:10.315Z,81.73
2019-03-18T04:13:41.065Z,81.92
2019-03-18T04:16:11.718Z,81.96
2019-03-18T04:18:42.570Z,81.92
2019-03-18T04:21:13.325Z,81.54
2019-03-18T04:23:44.086Z,80.76
2019-03-18T04:26:14.818Z,79.67
2019-03-18T04:28:45.571Z,79.38
2019-03-18T04:31:16.340Z,79.48
2019-03-18T04:33:48.529Z,79.51
2019-03-18T04:36:19.260Z,79.32
2019-03-18T04:38:50.133Z,78.96
2019-03-18T04:41:20.769Z,78.52
2019-03-18T04:43:50.734Z,78.17
2019-03-18T04:46:21.270Z,78.14
2019-03-18T04:48:52.125Z,77.73
2019-03-18T04:51:22.986Z,77.25
2019-03-18T04:53:54.229Z,76.70
2019-03-18T04:56:24.885Z,76.19
2019-03-18T04:58:55.737Z,75.89
2019-03-18T05:01:26.509Z,75.22
2019-03-18T05:03:57.263Z,75.18
2019-03-18T05:06:28.120Z,74.76
2019-03-18T05:08:58.974Z,74.59
2019-03-18T05:11:29.729Z,73.82
2019-03-18T05:14:00.381Z,73.78
2019-03-18T05:16:31.235Z,73.90
2019-03-18T05:19:01.869Z,73.51
2019-03-18T05:21:32.643Z,73.63
2019-03-18T05:24:03.380Z,74.84
2019-03-18T05:26:34.256Z,73.47
2019-03-18T05:29:04.884Z,72.79
2019-03-18T05:31:35.640Z,71.79
2019-03-18T05:34:05.517Z,69.84
2019-03-18T05:36:36.049Z,70.47
2019-03-18T05:39:06.879Z,71.09
2019-03-18T05:41:37.754Z,70.97
2019-03-18T05:44:08.505Z,71.15
2019-03-18T05:46:39.259Z,70.79
2019-03-18T05:49:10.115Z,71.08
2019-03-18T05:51:40.958Z,70.58
2019-03-18T05:54:11.829Z,71.32
2019-03-18T05:56:42.477Z,71.88
2019-03-18T05:59:13.336Z,72.56
2019-03-18T06:01:44.090Z,72.71
2019-03-18T06:04:14.843Z,72.32
2019-03-18T06:06:45.696Z,72.52
2019-03-18T06:09:16.555Z,72.68
2019-03-18T06:11:47.310Z,72.00
2019-03-18T06:14:17.850Z,71.34
2019-03-18T06:16:48.702Z,71.22
2019-03-18T06:19:19.468Z,72.05
2019-03-18T06:21:50.220Z,71.90
2019-03-18T06:24:20.878Z,71.09
2019-03-18T06:26:51.798Z,70.71
2019-03-18T06:29:22.688Z,70.47
2019-03-18T06:31:53.319Z,69.46
2019-03-18T06:34:24.199Z,68.84
2019-03-18T06:36:54.949Z,68.22
2019-03-18T06:39:25.583Z,67.74
2019-03-18T06:41:55.662Z,67.53
2019-03-18T06:44:26.188Z,67.90
2019-03-18T06:46:56.839Z,67.66
2019-03-18T06:49:28.718Z,67.80
2019-03-18T06:51:59.573Z,67.46
2019-03-18T06:54:30.428Z,67.33
2019-03-18T06:57:01.166Z,66.92
2019-03-18T06:59:31.834Z,66.54
2019-03-18T07:02:02.679Z,66.40
2019-03-18T07:04:33.444Z,65.81
2019-03-18T07:07:04.198Z,64.91
2019-03-18T07:09:35.055Z,64.91
2019-03-18T07:12:05.894Z,64.49
2019-03-18T07:14:36.667Z,64.02
2019-03-18T07:17:07.322Z,63.83
2019-03-18T07:19:38.176Z,63.72
2019-03-18T07:22:08.913Z,63.82
2019-03-18T07:24:39.679Z,63.37
2019-03-18T07:27:10.537Z,62.83
2019-03-18T07:29:41.275Z,61.37
2019-03-18T07:32:12.046Z,61.41
2019-03-18T07:34:42.699Z,61.59
2019-03-18T07:37:13.550Z,58.66
2019-03-18T07:39:44.305Z,58.26
2019-03-18T07:42:15.061Z,58.09
2019-03-18T07:44:45.711Z,57.71
2019-03-18T07:47:16.470Z,59.17
2019-03-18T07:49:48.348Z,58.29
2019-03-18T07:52:21.797Z,57.38
2019-03-18T07:54:51.283Z,57.45
2019-03-18T07:57:21.963Z,57.29
2019-03-18T07:59:52.802Z,55.83
2019-03-18T08:02:23.649Z,55.65
2019-03-18T08:04:54.399Z,55.74
2019-03-18T08:07:25.054Z,55.00
2019-03-18T08:09:55.909Z,55.46
2019-03-18T08:12:26.662Z,55.67
2019-03-18T08:14:57.415Z,55.39
2019-03-18T08:17:28.254Z,55.02
2019-03-18T08:19:59.132Z,54.26
2019-03-18T08:22:29.865Z,54.87
2019-03-18T08:25:00.515Z,55.04
2019-03-18T08:27:31.391Z,54.85
2019-03-18T08:30:02.148Z,53.58
2019-03-18T08:32:32.906Z,53.05
2019-03-18T08:35:03.754Z,53.99
2019-03-18T08:37:34.284Z,52.97
2019-03-18T08:40:07.733Z,53.10
2019-03-18T08:42:38.148Z,51.86
2019-03-18T08:45:10.625Z,52.62
2019-03-18T08:47:41.106Z,52.04
2019-03-18T08:50:12.868Z,53.25
2019-03-18T08:52:43.641Z,51.53
2019-03-18T08:55:14.593Z,50.86
2019-03-18T08:57:45.330Z,51.60
2019-03-18T09:00:16.916Z,50.64
2019-03-18T09:02:47.365Z,51.11
2019-03-18T09:05:18.120Z,51.17
2019-03-18T09:07:48.785Z,49.51
2019-03-18T09:10:19.627Z,49.78
2019-03-18T09:12:49.585Z,50.52
2019-03-18T09:15:20.097Z,49.21
2019-03-18T09:17:50.967Z,49.35
2019-03-18T09:20:21.720Z,49.13
2019-03-18T09:22:52.370Z,49.40
2019-03-18T09:25:23.229Z,47.49
2019-03-18T09:27:54.082Z,47.98
2019-03-18T09:30:24.841Z,45.97
2019-03-18T09:32:55.474Z,45.99
2019-03-18T09:35:26.347Z,46.58
2019-03-18T09:37:57.100Z,46.52
2019-03-18T09:40:29.382Z,46.46
2019-03-18T09:43:00.142Z,46.54
2019-03-18T09:45:31.001Z,45.97
2019-03-18T09:48:01.754Z,46.26
2019-03-18T09:50:33.528Z,46.99
2019-03-18T09:53:04.183Z,47.20
2019-03-18T09:55:35.022Z,46.47
2019-03-18T09:58:05.890Z,46.70
2019-03-18T10:00:36.645Z,46.88
2019-03-18T10:03:07.298Z,45.89
2019-03-18T10:05:39.686Z,45.12
2019-03-18T10:08:10.766Z,44.49
2019-03-18T10:10:41.384Z,45.64
2019-03-18T10:13:12.256Z,45.05
2019-03-18T10:15:43.115Z,44.62
2019-03-18T10:18:13.867Z,44.99
2019-03-18T10:20:44.399Z,45.98
2019-03-18T10:23:15.275Z,44.66
2019-03-18T10:25:46.028Z,44.87
2019-03-18T10:28:16.780Z,43.60
2019-03-18T10:30:47.528Z,44.26
2019-03-18T10:33:17.870Z,45.63
2019-03-18T10:35:48.617Z,43.92
2019-03-18T10:38:19.393Z,43.90
2019-03-18T10:40:50.145Z,44.19
2019-03-18T10:43:20.790Z,43.25
2019-03-18T10:45:51.647Z,42.58
2019-03-18T10:48:22.384Z,42.50
2019-03-18T10:50:54.076Z,42.94
2019-03-18T10:53:24.850Z,42.84
2019-03-18T10:56:06.963Z,43.36
2019-03-18T10:58:27.750Z,42.78
2019-03-18T11:00:58.515Z,42.99
2019-03-18T11:03:29.277Z,41.98
2019-03-18T11:05:59.932Z,42.03
2019-03-18T11:08:30.787Z,41.40
2019-03-18T11:11:01.540Z,41.32
2019-03-18T11:13:32.293Z,40.90
2019-03-18T11:16:02.947Z,41.60
2019-03-18T11:18:33.784Z,40.44
2019-03-18T11:21:04.556Z,40.18
2019-03-18T11:23:35.308Z,40.39
2019-03-18T11:26:06.165Z,38.91
2019-03-18T11:28:37.325Z,40.67
2019-03-18T11:31:07.676Z,39.97
2019-03-18T11:33:38.327Z,38.93
2019-03-18T11:36:09.177Z,39.43
2019-03-18T11:38:40.035Z,39.86
2019-03-18T11:41:09.680Z,40.27
2019-03-18T11:43:40.212Z,39.33
2019-03-18T11:46:11.068Z,38.90
2019-03-18T11:48:41.824Z,39.90
2019-03-18T11:51:13.377Z,39.83
2019-03-18T11:53:44.150Z,39.29
2019-03-18T11:56:14.785Z,38.68
2019-03-18T11:58:45.655Z,39.06
2019-03-18T12:01:16.409Z,39.48
2019-03-18T12:03:47.163Z,38.05
2019-03-18T12:06:17.900Z,38.36
2019-03-18T12:08:48.775Z,36.69
2019-03-18T12:11:19.409Z,37.87
2019-03-18T12:13:50.280Z,38.54
2019-03-18T12:16:20.814Z,39.05
2019-03-18T12:18:51.687Z,39.31
2019-03-18T12:21:22.440Z,38.49
2019-03-18T12:23:53.200Z,37.83
2019-03-18T12:26:23.726Z,38.90
2019-03-18T12:28:54.482Z,39.86
2019-03-18T12:31:25.239Z,38.49
2019-03-18T12:33:57.445Z,38.61
2019-03-18T12:36:28.498Z,37.66
2019-03-18T12:38:59.236Z,37.86
2019-03-18T12:41:30.726Z,38.77
2019-03-18T12:44:01.577Z,39.80
2019-03-18T12:46:32.211Z,39.96
2019-03-18T12:49:02.760Z,39.02
2019-03-18T12:51:33.864Z,38.82
2019-03-18T12:54:04.390Z,39.48
2019-03-18T12:56:35.124Z,39.75
2019-03-18T12:59:05.779Z,39.67
2019-03-18T13:01:36.530Z,40.43
2019-03-18T13:04:07.302Z,39.82
2019-03-18T13:06:38.056Z,40.95
2019-03-18T13:09:08.690Z,40.72
2019-03-18T13:11:39.568Z,41.27
2019-03-18T13:14:10.421Z,40.82
2019-03-18T13:16:41.054Z,40.79
2019-03-18T13:19:11.709Z,41.22
2019-03-18T13:21:42.462Z,42.06
2019-03-18T13:24:13.338Z,41.91
2019-03-18T13:26:43.970Z,41.73
2019-03-18T13:29:14.619Z,40.96
2019-03-18T13:31:45.377Z,41.18
2019-03-18T13:34:16.247Z,41.48
2019-03-18T13:36:47.003Z,41.33
2019-03-18T13:39:17.670Z,41.62
2019-03-18T13:41:48.510Z,41.72
2019-03-18T13:44:19.246Z,41.94
2019-03-18T13:46:50.018Z,41.55
2019-03-18T13:49:20.670Z,42.27
2019-03-18T13:51:52.427Z,42.41
2019-03-18T13:54:23.304Z,42.70
2019-03-18T13:56:54.141Z,42.24
2019-03-18T13:59:24.794Z,42.23
2019-03-18T14:01:55.669Z,42.78
2019-03-18T14:04:26.435Z,42.57
2019-03-18T14:06:57.380Z,42.90
2019-03-18T14:09:28.134Z,42.52
2019-03-18T14:11:58.765Z,42.90
2019-03-18T14:14:29.645Z,43.28
2019-03-18T14:17:00.477Z,42.74
2019-03-18T14:19:31.130Z,43.53
2019-03-18T14:22:01.907Z,43.37
2019-03-18T14:24:32.643Z,43.21
2019-03-18T14:27:03.391Z,43.94
2019-03-18T14:29:34.165Z,44.40
2019-03-18T14:32:04.815Z,44.60
2019-03-18T14:34:35.550Z,44.73
2019-03-18T14:37:06.304Z,44.76
2019-03-18T14:39:37.061Z,43.93
2019-03-18T14:42:07.735Z,44.52
2019-03-18T14:44:38.484Z,44.67
2019-03-18T14:47:09.236Z,44.80
2019-03-18T14:49:39.874Z,43.47
2019-03-18T14:52:11.646Z,44.43
2019-03-18T14:54:42.110Z,45.24
2019-03-18T14:57:12.869Z,44.20
2019-03-18T14:59:43.722Z,45.21
2019-03-18T15:02:14.475Z,45.09
2019-03-18T15:04:45.227Z,45.75
2019-03-18T15:07:15.982Z,45.51
2019-03-18T15:09:46.837Z,45.56
2019-03-18T15:12:17.575Z,45.48
2019-03-18T15:14:48.185Z,45.82
2019-03-18T15:17:18.995Z,46.38
2019-03-18T15:19:49.854Z,46.37
2019-03-18T15:22:20.593Z,47.85
2019-03-18T15:24:51.361Z,48.30
2019-03-18T15:27:22.216Z,48.62
2019-03-18T15:29:52.971Z,48.30
2019-03-18T15:32:23.728Z,48.57
2019-03-18T15:34:54.581Z,49.72
2019-03-18T15:37:25.417Z,49.05
2019-03-18T15:39:56.192Z,48.49
2019-03-18T15:42:26.826Z,48.33
2019-03-18T15:44:57.699Z,48.67
2019-03-18T15:47:28.454Z,48.53
2019-03-18T15:49:59.208Z,49.57
2019-03-18T15:52:30.985Z,50.33
2019-03-18T15:55:01.636Z,49.62
2019-03-18T15:57:32.695Z,49.05
2019-03-18T16:00:04.043Z,49.25
2019-03-18T16:02:34.616Z,48.87
2019-03-18T16:05:06.468Z,48.88
2019-03-18T16:07:36.922Z,47.81
2019-03-18T16:10:15.464Z,49.04
2019-03-18T16:12:45.789Z,49.92
2019-03-18T16:15:17.196Z,50.37
2019-03-18T16:17:47.622Z,50.70
2019-03-18T16:20:26.053Z,51.69
2019-03-18T16:22:56.477Z,51.08
2019-03-18T16:25:27.128Z,50.72
2019-03-18T16:27:58.396Z,51.33
2019-03-18T16:30:29.049Z,50.67
2019-03-18T16:32:59.225Z,50.96
2019-03-18T16:35:29.753Z,51.47
2019-03-18T16:38:00.403Z,51.27
2019-03-18T16:40:31.143Z,51.12
2019-03-18T16:43:02.014Z,51.30
2019-03-18T16:45:32.766Z,51.40
2019-03-18T16:48:03.421Z,51.24
2019-03-18T16:50:34.275Z,52.26
2019-03-18T16:53:06.160Z,53.07
2019-03-18T16:55:36.790Z,52.92
2019-03-18T16:58:07.768Z,53.25
2019-03-18T17:00:38.621Z,52.59
2019-03-18T17:03:09.477Z,52.43
2019-03-18T17:05:40.231Z,54.18
2019-03-18T17:08:10.883Z,54.26
2019-03-18T17:10:41.737Z,54.12
2019-03-18T17:13:12.495Z,54.22
2019-03-18T17:15:43.246Z,54.03
2019-03-18T17:18:13.984Z,54.31
2019-03-18T17:20:44.736Z,54.24
2019-03-18T17:23:15.584Z,53.98
2019-03-18T17:25:46.347Z,54.12
2019-03-18T17:28:17.222Z,53.63
2019-03-18T17:30:47.870Z,53.93
2019-03-18T17:33:18.625Z,53.59
2019-03-18T17:35:49.160Z,54.10
2019-03-18T17:38:20.032Z,54.34
2019-03-18T17:40:50.784Z,54.63
2019-03-18T17:43:21.435Z,55.33
2019-03-18T17:45:52.089Z,55.20
2019-03-18T17:48:22.945Z,54.93
2019-03-18T17:50:53.699Z,55.04
2019-03-18T17:53:24.558Z,54.72
2019-03-18T17:55:55.293Z,55.61
2019-03-18T17:58:26.166Z,55.66
2019-03-18T18:00:58.457Z,56.72
2019-03-18T18:03:29.109Z,56.73
2019-03-18T18:05:59.961Z,56.43
2019-03-18T18:08:30.713Z,56.42
2019-03-18T18:11:02.165Z,56.78
2019-03-18T18:13:33.239Z,57.27
2019-03-18T18:16:05.001Z,57.75
2019-03-18T18:18:35.754Z,57.99
2019-03-18T18:21:06.509Z,57.87
2019-03-18T18:23:37.384Z,57.35
2019-03-18T18:26:08.040Z,57.40
2019-03-18T18:28:37.788Z,58.16
2019-03-18T18:31:08.212Z,58.95
2019-03-18T18:33:39.003Z,58.40
2019-03-18T18:36:09.719Z,58.48
2019-03-18T18:38:40.884Z,58.48
2019-03-18T18:41:11.643Z,59.19
2019-03-18T18:43:42.287Z,59.86
2019-03-18T18:46:13.207Z,60.17
2019-03-18T18:48:44.006Z,60.58
2019-03-18T18:51:14.746Z,60.03
2019-03-18T18:53:45.509Z,60.42
2019-03-18T18:56:16.369Z,60.58
2019-03-18T18:58:47.221Z,61.21
2019-03-18T19:01:17.874Z,61.51
2019-03-18T19:03:48.729Z,62.04
2019-03-18T19:06:19.482Z,63.00
2019-03-18T19:08:50.220Z,62.54
2019-03-18T19:11:20.776Z,63.17
2019-03-18T19:13:51.642Z,62.35
2019-03-18T19:16:22.496Z,62.51
2019-03-18T19:18:53.355Z,62.40
2019-03-18T19:21:24.089Z,62.76
2019-03-18T19:23:54.964Z,61.63
2019-03-18T19:26:25.597Z,63.01
2019-03-18T19:28:57.186Z,63.97
2019-03-18T19:31:27.940Z,62.90
2019-03-18T19:33:58.591Z,62.31
2019-03-18T19:36:29.448Z,62.75
2019-03-18T19:39:00.206Z,61.93
2019-03-18T19:41:32.626Z,63.08
2019-03-18T19:44:03.450Z,62.99
2019-03-18T19:46:34.305Z,62.62
2019-03-18T19:49:05.163Z,62.04
2019-03-18T19:51:37.333Z,62.83
2019-03-18T19:54:08.101Z,63.34
2019-03-18T19:56:38.737Z,63.21
2019-03-18T19:59:09.514Z,62.40
2019-03-18T20:01:40.264Z,62.17
2019-03-18T20:04:10.912Z,62.66
2019-03-18T20:06:41.650Z,62.15
2019-03-18T20:09:12.534Z,62.88
2019-03-18T20:11:43.275Z,61.81
2019-03-18T20:14:14.011Z,63.02
2019-03-18T20:16:44.764Z,63.61
2019-03-18T20:19:15.534Z,62.19
2019-03-18T20:21:46.195Z,62.55
2019-03-18T20:24:17.043Z,62.87
2019-03-18T20:26:47.904Z,62.71
2019-03-18T20:29:18.653Z,63.91
2019-03-18T20:31:49.305Z,63.30
2019-03-18T20:34:21.465Z,63.57
2019-03-18T20:36:52.125Z,63.40
2019-03-18T20:39:22.900Z,63.19
2019-03-18T20:41:53.539Z,63.79
2019-03-18T21:58:03.929Z,63.67
2019-03-18T22:00:34.679Z,64.45
2019-03-18T22:03:05.534Z,66.79
2019-03-18T22:05:36.290Z,66.56
2019-03-18T22:08:07.042Z,65.61
2019-03-18T22:10:37.898Z,66.03
2019-03-18T22:13:08.640Z,65.92
2019-03-18T22:15:39.406Z,65.41
2019-03-18T22:18:10.042Z,66.65
2019-03-18T22:20:40.915Z,66.86
2019-03-18T22:23:11.770Z,66.85
2019-03-18T22:25:42.406Z,66.00
2019-03-18T22:28:12.482Z,65.85
2019-03-18T22:30:42.992Z,66.10
2019-03-18T22:33:13.643Z,65.99
2019-03-18T22:35:44.519Z,67.04
2019-03-18T22:38:15.254Z,66.77
2019-03-18T22:40:45.903Z,67.01
2019-03-18T22:43:15.983Z,66.93
2019-03-18T22:45:46.493Z,66.70
2019-03-18T22:48:17.264Z,66.82
2019-03-18T22:50:48.118Z,66.46
2019-03-18T22:53:18.973Z,67.10
2019-03-18T22:55:49.834Z,67.00
2019-03-18T22:58:20.690Z,67.22
2019-03-18T23:00:53.078Z,67.21
2019-03-18T23:03:23.711Z,67.17
2019-03-18T23:05:53.687Z,67.23
2019-03-18T23:08:23.994Z,67.12
2019-03-18T23:10:54.761Z,66.89
2019-03-18T23:13:25.401Z,66.57
2019-03-18T23:15:56.152Z,67.13
2019-03-18T23:18:27.027Z,67.89
2019-03-18T23:20:57.779Z,68.15
2019-03-18T23:23:28.430Z,68.11
2019-03-18T23:25:59.166Z,68.08
2019-03-18T23:28:29.937Z,68.31
2019-03-18T23:31:00.574Z,68.08
2019-03-18T23:33:30.706Z,68.39
2019-03-18T23:36:01.280Z,68.93
2019-03-18T23:38:31.930Z,69.52
2019-03-18T23:41:02.790Z,68.97
2019-03-18T23:43:33.539Z,68.87
2019-03-18T23:46:04.297Z,68.83
2019-03-18T23:48:34.947Z,69.40
2019-03-18T23:51:05.807Z,69.56
2019-03-18T23:53:36.555Z,69.44
2019-03-18T23:56:08.230Z,69.68
2019-03-18T23:58:38.982Z,70.05
